Time;durP1;ratioP1;P1;durP2;ratioP2;P2;SDS_P1;SDS_P2;PMS_P1;PMS_P2;Temp;Humidity;BMP_temperature;BMP_pressure;BME280_temperature;BME280_humidity;BME280_pressure;Samples;Min_cycle;Max_cycle;Signal;HPM_P1;HPM_P2
2023/11/05 00:02:22;;;;;;;4.05;1.42;;;;;;;;;;5116548;28;20396;-62
2023/11/05 00:04:49;;;;;;;4.70;1.15;;;;;;;;;;5116263;28;20048;-62
2023/11/05 00:07:17;;;;;;;4.28;1.60;;;;;;;;;;5116422;28;20066;-62
2023/11/05 00:09:44;;;;;;;5.25;1.23;;;;;;;;;;5116677;28;20055;-62
2023/11/05 00:12:11;;;;;;;4.53;1.23;;;;;;;;;;5116575;28;20480;-62
2023/11/05 00:14:37;;;;;;;6.00;1.50;;;;;;;;;;5116258;28;20051;-63
2023/11/05 00:17:04;;;;;;;7.78;1.77;;;;;;;;;;5116486;28;20052;-63
2023/11/05 00:19:31;;;;;;;4.22;1.38;;;;;;;;;;5116058;28;20048;-63
2023/11/05 00:21:58;;;;;;;4.70;1.02;;;;;;;;;;5116214;28;20052;-63
2023/11/05 00:24:26;;;;;;;4.78;1.10;;;;;;;;;;5115591;28;20051;-63
2023/11/05 00:26:58;;;;;;;6.53;1.65;;;;;;;;;;5116100;28;20081;-63
2023/11/05 00:29:25;;;;;;;5.72;1.38;;;;;;;;;;5115812;28;20051;-62
2023/11/05 00:31:52;;;;;;;4.30;1.38;;;;;;;;;;5115713;28;20047;-63
2023/11/05 00:34:18;;;;;;;4.85;1.35;;;;;;;;;;5116002;28;20047;-63
2023/11/05 00:36:49;;;;;;;5.20;1.67;;;;;;;;;;5115695;28;20055;-62
2023/11/05 00:39:16;;;;;;;6.13;1.63;;;;;;;;;;5115744;28;20067;-62
2023/11/05 00:41:44;;;;;;;6.43;1.73;;;;;;;;;;5115626;28;20050;-63
2023/11/05 00:44:13;;;;;;;6.30;1.63;;;;;;;;;;5116046;28;20055;-62
2023/11/05 00:46:40;;;;;;;5.93;1.38;;;;;;;;;;5115946;28;20405;-62
2023/11/05 00:49:08;;;;;;;6.43;1.42;;;;;;;;;;5114174;28;20058;-62
2023/11/05 00:51:34;;;;;;;7.75;1.60;;;;;;;;;;5114876;28;20048;-62
2023/11/05 00:54:01;;;;;;;5.47;1.73;;;;;;;;;;5115173;28;20055;-62
2023/11/05 00:56:31;;;;;;;10.18;1.92;;;;;;;;;;5115385;28;20059;-62
2023/11/05 00:59:01;;;;;;;6.68;1.45;;;;;;;;;;5115174;28;20491;-62
2023/11/05 01:01:28;;;;;;;7.53;2.05;;;;;;;;;;5115464;28;20051;-62
2023/11/05 01:03:55;;;;;;;5.38;1.80;;;;;;;;;;5115389;28;20058;-62
2023/11/05 01:06:21;;;;;;;6.93;1.70;;;;;;;;;;5115274;28;20408;-61
2023/11/05 01:08:48;;;;;;;5.10;1.38;;;;;;;;;;5114896;28;20051;-62
2023/11/05 01:11:17;;;;;;;7.05;1.30;;;;;;;;;;5115193;28;20058;-61
2023/11/05 01:13:44;;;;;;;8.07;1.80;;;;;;;;;;5115226;28;20408;-61
2023/11/05 01:16:12;;;;;;;6.28;1.52;;;;;;;;;;5114938;28;20048;-61
2023/11/05 01:18:41;;;;;;;5.85;1.42;;;;;;;;;;5115142;28;20047;-60
2023/11/05 01:21:12;;;;;;;9.13;1.80;;;;;;;;;;5115174;28;20051;-61
2023/11/05 01:23:39;;;;;;;4.45;1.13;;;;;;;;;;5114780;28;20062;-61
2023/11/05 01:26:06;;;;;;;4.47;1.48;;;;;;;;;;5115091;28;20063;-62
2023/11/05 01:28:33;;;;;;;6.22;1.98;;;;;;;;;;5114390;28;20048;-62
2023/11/05 01:30:59;;;;;;;9.40;1.70;;;;;;;;;;5114623;28;20078;-61
2023/11/05 01:33:28;;;;;;;4.75;1.27;;;;;;;;;;5114257;28;20051;-62
2023/11/05 01:35:54;;;;;;;7.50;1.58;;;;;;;;;;5114840;28;20055;-62
2023/11/05 01:38:21;;;;;;;8.25;1.80;;;;;;;;;;5114596;28;20408;-62
2023/11/05 01:40:48;;;;;;;6.60;1.50;;;;;;;;;;5114490;28;20405;-62
2023/11/05 01:43:15;;;;;;;7.30;2.00;;;;;;;;;;5114139;28;20047;-62
2023/11/05 01:45:42;;;;;;;8.10;1.63;;;;;;;;;;5114314;28;20412;-63
2023/11/05 01:48:09;;;;;;;11.75;1.80;;;;;;;;;;5114552;28;20063;-62
2023/11/05 01:50:37;;;;;;;5.40;1.38;;;;;;;;;;5114461;28;20056;-63
2023/11/05 01:53:05;;;;;;;9.90;1.60;;;;;;;;;;5114341;28;20427;-62
2023/11/05 01:55:33;;;;;;;3.97;1.45;;;;;;;;;;5114207;28;20055;-62
2023/11/05 01:58:03;;;;;;;9.40;1.92;;;;;;;;;;5113838;28;20051;-62
2023/11/05 02:00:29;;;;;;;;;;;;;;;;;;5114635;28;20063;-63
2023/11/05 02:02:56;;;;;;;8.93;2.10;;;;;;;;;;5114385;28;20307;-64
2023/11/05 02:05:23;;;;;;;10.30;2.10;;;;;;;;;;5114111;28;20055;-63
2023/11/05 02:07:52;;;;;;;9.48;1.85;;;;;;;;;;5114428;28;20051;-63
2023/11/05 02:10:18;;;;;;;10.65;2.35;;;;;;;;;;5113771;28;20051;-63
2023/11/05 02:12:57;;;;;;;10.45;2.13;;;;;;;;;;5113571;28;20404;-63
2023/11/05 02:15:24;;;;;;;9.68;2.08;;;;;;;;;;5113771;28;20086;-63
2023/11/05 02:17:51;;;;;;;9.85;2.17;;;;;;;;;;5113881;28;20070;-63
2023/11/05 02:20:18;;;;;;;10.02;1.98;;;;;;;;;;5113458;28;20051;-63
2023/11/05 02:22:47;;;;;;;11.30;2.00;;;;;;;;;;5113924;28;20048;-64
2023/11/05 02:25:18;;;;;;;11.63;2.88;;;;;;;;;;5113904;28;20055;-63
2023/11/05 02:27:46;;;;;;;11.48;1.83;;;;;;;;;;5113858;28;20066;-64
2023/11/05 02:30:15;;;;;;;10.95;2.00;;;;;;;;;;5113718;28;20047;-63
2023/11/05 02:32:42;;;;;;;6.30;1.80;;;;;;;;;;5113954;28;20052;-63
2023/11/05 02:35:09;;;;;;;10.77;1.83;;;;;;;;;;5113689;28;20051;-64
2023/11/05 02:37:36;;;;;;;5.95;1.85;;;;;;;;;;5113785;28;20066;-63
2023/11/05 02:40:03;;;;;;;6.28;1.50;;;;;;;;;;5113608;28;20494;-63
2023/11/05 02:42:31;;;;;;;5.35;1.52;;;;;;;;;;5113524;28;20043;-63
2023/11/05 02:44:58;;;;;;;7.07;1.77;;;;;;;;;;5113184;28;20055;-62
2023/11/05 02:47:25;;;;;;;7.32;1.80;;;;;;;;;;5113392;28;20137;-63
2023/11/05 02:49:52;;;;;;;8.15;1.90;;;;;;;;;;5113031;28;20051;-63
2023/11/05 02:52:18;;;;;;;5.75;1.27;;;;;;;;;;5113601;28;20376;-63
2023/11/05 02:54:47;;;;;;;5.15;1.40;;;;;;;;;;5113116;28;20097;-63
2023/11/05 02:57:20;;;;;;;4.00;1.30;;;;;;;;;;5113258;28;20133;-63
2023/11/05 02:59:48;;;;;;;5.03;1.45;;;;;;;;;;5113231;28;20605;-64
2023/11/05 03:02:15;;;;;;;3.08;1.00;;;;;;;;;;5111607;28;20473;-63
2023/11/05 03:04:42;;;;;;;5.85;1.10;;;;;;;;;;5103076;28;20416;-63
2023/11/05 03:07:09;;;;;;;4.63;1.30;;;;;;;;;;5092763;28;20063;-63
2023/11/05 03:09:36;;;;;;;3.10;0.98;;;;;;;;;;5092474;28;20047;-63
2023/11/05 03:12:03;;;;;;;3.08;1.10;;;;;;;;;;5092353;28;20473;-63
2023/11/05 03:14:30;;;;;;;2.67;1.10;;;;;;;;;;5092483;28;20404;-63
2023/11/05 03:17:00;;;;;;;3.13;1.00;;;;;;;;;;5092913;28;20473;-63
2023/11/05 03:19:27;;;;;;;4.03;1.00;;;;;;;;;;5092603;28;20063;-63
2023/11/05 03:21:54;;;;;;;2.22;1.05;;;;;;;;;;5092687;28;20407;-64
2023/11/05 03:24:20;;;;;;;3.47;1.15;;;;;;;;;;5092751;28;20057;-63
2023/11/05 03:26:49;;;;;;;2.30;0.80;;;;;;;;;;5092786;28;20055;-63
2023/11/05 03:29:16;;;;;;;2.30;1.00;;;;;;;;;;5092719;28;20047;-63
2023/11/05 03:31:43;;;;;;;2.70;1.45;;;;;;;;;;5092456;28;20588;-63
2023/11/05 03:34:11;;;;;;;4.93;1.40;;;;;;;;;;5092282;28;20056;-63
2023/11/05 03:36:41;;;;;;;4.80;1.33;;;;;;;;;;5092304;28;20059;-63
2023/11/05 03:39:08;;;;;;;2.30;1.17;;;;;;;;;;5092315;28;20060;-63
2023/11/05 03:41:35;;;;;;;3.42;1.00;;;;;;;;;;5092428;28;20061;-63
2023/11/05 03:44:01;;;;;;;5.68;1.58;;;;;;;;;;5092872;28;20480;-62
2023/11/05 03:46:28;;;;;;;3.47;1.27;;;;;;;;;;5092215;28;20052;-63
2023/11/05 03:48:55;;;;;;;3.92;1.38;;;;;;;;;;5092845;28;20052;-63
2023/11/05 03:51:23;;;;;;;4.22;1.40;;;;;;;;;;5092443;28;20390;-63
2023/11/05 03:53:50;;;;;;;2.72;0.98;;;;;;;;;;5092072;28;20048;-63
2023/11/05 03:56:16;;;;;;;1.90;0.95;;;;;;;;;;5092479;28;20401;-63
2023/11/05 03:58:44;;;;;;;2.42;1.10;;;;;;;;;;5092464;28;20055;-63
2023/11/05 04:01:15;;;;;;;3.72;0.90;;;;;;;;;;5092140;28;20052;-63
2023/11/05 04:03:42;;;;;;;3.42;0.82;;;;;;;;;;5110168;28;20064;-63
2023/11/05 04:06:09;;;;;;;2.83;0.90;;;;;;;;;;5112443;28;20047;-62
2023/11/05 04:08:37;;;;;;;4.43;1.30;;;;;;;;;;5112424;28;20072;-63
2023/11/05 04:11:04;;;;;;;3.45;1.08;;;;;;;;;;5112862;28;20491;-63
2023/11/05 04:13:31;;;;;;;1.55;0.73;;;;;;;;;;5112107;28;20047;-63
2023/11/05 04:15:59;;;;;;;2.20;0.90;;;;;;;;;;5112126;28;20058;-63
2023/11/05 04:18:26;;;;;;;2.45;0.68;;;;;;;;;;5111887;28;20055;-63
2023/11/05 04:20:52;;;;;;;4.07;0.85;;;;;;;;;;5112355;28;20400;-62
2023/11/05 04:23:21;;;;;;;1.85;0.82;;;;;;;;;;5111623;28;20044;-62
2023/11/05 04:25:49;;;;;;;3.80;0.87;;;;;;;;;;5115745;28;20051;-64
2023/11/05 04:28:19;;;;;;;2.75;0.95;;;;;;;;;;5115852;28;20469;-63
2023/11/05 04:30:46;;;;;;;2.72;0.77;;;;;;;;;;5115765;28;20055;-62
2023/11/05 04:33:12;;;;;;;1.50;0.70;;;;;;;;;;5116227;28;20050;-62
2023/11/05 04:35:39;;;;;;;1.67;0.63;;;;;;;;;;5116181;28;20055;-63
2023/11/05 04:38:09;;;;;;;2.67;0.60;;;;;;;;;;5115797;28;20064;-62
2023/11/05 04:40:36;;;;;;;1.70;0.88;;;;;;;;;;5115368;28;20412;-62
2023/11/05 04:43:04;;;;;;;4.28;1.13;;;;;;;;;;5115395;28;20055;-62
2023/11/05 04:45:34;;;;;;;3.10;0.90;;;;;;;;;;5115920;28;20059;-63
2023/11/05 04:48:00;;;;;;;2.83;0.70;;;;;;;;;;5113434;28;20048;-62
2023/11/05 04:50:27;;;;;;;2.30;0.60;;;;;;;;;;5115305;28;20064;-63
2023/11/05 04:52:54;;;;;;;1.20;0.63;;;;;;;;;;5115816;28;20050;-62
2023/11/05 04:55:21;;;;;;;2.75;0.80;;;;;;;;;;5115193;28;20052;-63
2023/11/05 04:57:48;;;;;;;5.75;1.15;;;;;;;;;;5115642;28;20062;-62
2023/11/05 05:00:17;;;;;;;2.38;0.95;;;;;;;;;;5115518;28;20055;-63
2023/11/05 05:02:45;;;;;;;4.22;0.90;;;;;;;;;;5115543;28;20047;-63
2023/11/05 05:05:12;;;;;;;1.65;0.73;;;;;;;;;;5115333;28;20062;-63
2023/11/05 05:07:40;;;;;;;2.30;0.60;;;;;;;;;;5115370;28;20079;-62
2023/11/05 05:10:08;;;;;;;2.17;1.02;;;;;;;;;;5115453;28;20048;-63
2023/11/05 05:12:35;;;;;;;2.03;0.60;;;;;;;;;;5115232;28;20392;-62
2023/11/05 05:15:03;;;;;;;1.98;0.60;;;;;;;;;;5114661;28;20051;-62
2023/11/05 05:17:31;;;;;;;2.92;0.70;;;;;;;;;;5115199;28;20058;-62
2023/11/05 05:19:58;;;;;;;2.45;0.60;;;;;;;;;;5114939;28;20055;-62
2023/11/05 05:22:25;;;;;;;2.13;0.65;;;;;;;;;;5114327;28;20058;-62
2023/11/05 05:24:53;;;;;;;2.13;0.68;;;;;;;;;;5114455;28;20060;-62
2023/11/05 05:27:19;;;;;;;1.92;0.63;;;;;;;;;;5115091;28;20047;-62
2023/11/05 05:29:46;;;;;;;1.83;0.57;;;;;;;;;;5114629;28;20074;-62
2023/11/05 05:32:13;;;;;;;2.08;0.75;;;;;;;;;;5114958;28;20054;-63
2023/11/05 05:34:41;;;;;;;1.30;0.50;;;;;;;;;;5114821;28;20055;-62
2023/11/05 05:37:08;;;;;;;1.38;0.57;;;;;;;;;;5114202;28;20052;-62
2023/11/05 05:39:35;;;;;;;1.60;0.70;;;;;;;;;;5114689;28;20380;-62
2023/11/05 05:42:03;;;;;;;1.60;0.60;;;;;;;;;;5114902;28;20051;-62
2023/11/05 05:44:33;;;;;;;1.52;0.52;;;;;;;;;;5114575;28;20051;-62
2023/11/05 05:47:00;;;;;;;2.03;0.60;;;;;;;;;;5114684;28;20051;-63
2023/11/05 05:49:27;;;;;;;4.38;0.73;;;;;;;;;;5114080;28;20055;-62
2023/11/05 05:51:55;;;;;;;2.97;0.60;;;;;;;;;;5114692;28;20385;-62
2023/11/05 05:54:22;;;;;;;1.88;0.50;;;;;;;;;;5113792;28;20059;-62
2023/11/05 05:56:49;;;;;;;3.45;0.57;;;;;;;;;;5114240;28;20055;-62
2023/11/05 05:59:16;;;;;;;0.90;0.40;;;;;;;;;;5114111;28;20408;-62
2023/11/05 06:01:42;;;;;;;1.48;0.45;;;;;;;;;;5114134;28;20415;-62
2023/11/05 06:04:09;;;;;;;2.28;0.75;;;;;;;;;;5114246;28;20056;-62
2023/11/05 06:06:36;;;;;;;2.05;0.80;;;;;;;;;;5114124;28;20063;-62
2023/11/05 06:09:06;;;;;;;1.95;0.60;;;;;;;;;;5113975;28;20436;-62
2023/11/05 06:11:33;;;;;;;2.42;0.68;;;;;;;;;;5113860;28;20051;-62
2023/11/05 06:14:00;;;;;;;2.85;0.55;;;;;;;;;;5113636;28;20499;-62
2023/11/05 06:16:26;;;;;;;2.10;0.75;;;;;;;;;;5113703;28;20054;-62
2023/11/05 06:18:53;;;;;;;1.98;0.70;;;;;;;;;;5113906;28;20052;-62
2023/11/05 06:21:20;;;;;;;3.92;0.80;;;;;;;;;;5113751;28;20054;-62
2023/11/05 06:23:47;;;;;;;1.65;0.70;;;;;;;;;;5113405;28;20047;-63
2023/11/05 06:26:15;;;;;;;4.18;1.05;;;;;;;;;;5113616;28;20055;-62
2023/11/05 06:28:42;;;;;;;1.60;0.60;;;;;;;;;;5114105;28;20055;-62
2023/11/05 06:31:09;;;;;;;1.10;0.50;;;;;;;;;;5113154;28;20059;-62
2023/11/05 06:33:35;;;;;;;4.50;0.60;;;;;;;;;;5113173;28;20051;-62
2023/11/05 06:36:02;;;;;;;1.45;0.60;;;;;;;;;;5113388;28;20495;-62
2023/11/05 06:38:29;;;;;;;1.70;0.45;;;;;;;;;;5113479;28;20427;-62
2023/11/05 06:40:56;;;;;;;1.45;0.50;;;;;;;;;;5113205;28;20489;-62
2023/11/05 06:43:24;;;;;;;3.08;0.65;;;;;;;;;;5113494;28;20476;-62
2023/11/05 06:45:51;;;;;;;2.17;0.60;;;;;;;;;;5113298;28;20051;-62
2023/11/05 06:48:19;;;;;;;2.22;0.60;;;;;;;;;;5113135;28;20055;-62
2023/11/05 06:50:47;;;;;;;2.20;0.75;;;;;;;;;;5112942;28;20059;-64
2023/11/05 06:53:13;;;;;;;1.30;0.60;;;;;;;;;;5113387;28;20063;-62
2023/11/05 06:55:40;;;;;;;1.13;0.45;;;;;;;;;;5113262;28;20129;-63
2023/11/05 06:58:08;;;;;;;4.78;0.60;;;;;;;;;;5112821;28;20052;-63
2023/11/05 07:00:36;;;;;;;1.60;0.43;;;;;;;;;;5113452;28;20435;-63
2023/11/05 07:03:03;;;;;;;1.67;0.70;;;;;;;;;;5113190;28;20051;-63
2023/11/05 07:05:29;;;;;;;0.77;0.32;;;;;;;;;;5113336;28;20063;-63
2023/11/05 07:07:56;;;;;;;2.50;0.60;;;;;;;;;;5112861;28;20059;-63
2023/11/05 07:10:24;;;;;;;1.35;0.50;;;;;;;;;;5112990;28;20054;-63
2023/11/05 07:12:51;;;;;;;1.17;0.50;;;;;;;;;;5112723;28;20054;-63
2023/11/05 07:15:18;;;;;;;2.63;0.77;;;;;;;;;;5112879;28;20499;-63
2023/11/05 07:17:46;;;;;;;1.23;0.55;;;;;;;;;;5112901;28;20059;-62
2023/11/05 07:20:13;;;;;;;0.73;0.40;;;;;;;;;;5113179;28;20058;-63
2023/11/05 07:22:41;;;;;;;0.95;0.30;;;;;;;;;;5113087;28;20074;-63
2023/11/05 07:25:08;;;;;;;0.82;0.40;;;;;;;;;;5113046;28;20052;-63
2023/11/05 07:27:34;;;;;;;0.95;0.40;;;;;;;;;;5113069;28;20406;-63
2023/11/05 07:30:02;;;;;;;1.35;0.35;;;;;;;;;;5113134;28;20048;-63
2023/11/05 07:32:28;;;;;;;2.25;0.43;;;;;;;;;;5112899;28;20059;-65
2023/11/05 07:34:57;;;;;;;1.10;0.40;;;;;;;;;;5112475;28;20051;-65
2023/11/05 07:37:25;;;;;;;1.13;0.40;;;;;;;;;;5113381;28;20058;-65
2023/11/05 07:39:53;;;;;;;1.20;0.43;;;;;;;;;;5112704;28;20059;-65
2023/11/05 07:42:20;;;;;;;1.42;0.30;;;;;;;;;;5112755;28;20473;-66
2023/11/05 07:44:47;;;;;;;2.60;0.50;;;;;;;;;;5113087;28;20062;-65
2023/11/05 07:47:14;;;;;;;1.40;0.38;;;;;;;;;;5112644;28;20056;-65
2023/11/05 07:49:40;;;;;;;2.08;0.38;;;;;;;;;;5112009;28;20060;-65
2023/11/05 07:52:09;;;;;;;1.52;0.50;;;;;;;;;;5112807;28;20063;-65
2023/11/05 07:54:34;;;;;;;1.15;0.40;;;;;;;;;;5112435;28;20401;-65
2023/11/05 07:57:02;;;;;;;1.52;0.35;;;;;;;;;;5112510;28;20048;-65
2023/11/05 07:59:28;;;;;;;0.95;0.40;;;;;;;;;;5114271;28;20416;-65
2023/11/05 08:01:55;;;;;;;0.80;0.30;;;;;;;;;;5116616;28;20052;-65
2023/11/05 08:04:22;;;;;;;1.48;0.45;;;;;;;;;;5116571;28;20062;-65
2023/11/05 08:06:49;;;;;;;1.42;0.55;;;;;;;;;;5116357;28;20476;-64
2023/11/05 08:09:17;;;;;;;1.00;0.35;;;;;;;;;;5116289;28;20048;-64
2023/11/05 08:11:44;;;;;;;1.50;0.28;;;;;;;;;;5116563;28;20051;-65
2023/11/05 08:14:11;;;;;;;0.65;0.20;;;;;;;;;;5116441;28;20374;-64
2023/11/05 08:16:37;;;;;;;0.98;0.30;;;;;;;;;;5116183;28;20477;-64
2023/11/05 08:19:04;;;;;;;1.27;0.47;;;;;;;;;;5116095;28;20064;-64
2023/11/05 08:21:31;;;;;;;0.73;0.35;;;;;;;;;;5116102;28;20052;-64
2023/11/05 08:23:58;;;;;;;1.00;0.38;;;;;;;;;;5116117;28;20055;-64
2023/11/05 08:26:26;;;;;;;0.35;0.20;;;;;;;;;;5115769;28;20056;-64
2023/11/05 08:28:54;;;;;;;1.17;0.40;;;;;;;;;;5116077;28;20059;-64
2023/11/05 08:31:21;;;;;;;0.50;0.30;;;;;;;;;;5115992;28;20056;-64
2023/11/05 08:33:47;;;;;;;0.45;0.30;;;;;;;;;;5115986;28;20074;-64
2023/11/05 08:36:15;;;;;;;1.02;0.38;;;;;;;;;;5115982;28;20133;-64
2023/11/05 08:38:42;;;;;;;0.90;0.30;;;;;;;;;;5115561;28;20047;-64
2023/11/05 08:41:09;;;;;;;0.70;0.20;;;;;;;;;;5115482;28;20059;-63
2023/11/05 08:43:37;;;;;;;0.52;0.25;;;;;;;;;;5115930;28;20048;-63
2023/11/05 08:46:04;;;;;;;0.73;0.30;;;;;;;;;;5115952;28;20373;-63
2023/11/05 08:48:32;;;;;;;0.90;0.32;;;;;;;;;;5115765;28;20349;-64
2023/11/05 08:50:58;;;;;;;1.50;0.47;;;;;;;;;;5115084;28;20054;-62
2023/11/05 08:53:25;;;;;;;0.93;0.43;;;;;;;;;;5115412;28;20412;-64
2023/11/05 08:55:52;;;;;;;0.90;0.50;;;;;;;;;;5115282;28;20404;-63
2023/11/05 08:58:19;;;;;;;1.00;0.50;;;;;;;;;;5115511;28;20055;-63
2023/11/05 09:00:55;;;;;;;1.38;0.70;;;;;;;;;;5115146;28;20051;-62
2023/11/05 09:03:21;;;;;;;1.17;0.55;;;;;;;;;;5115066;28;20048;-63
2023/11/05 09:05:48;;;;;;;0.88;0.30;;;;;;;;;;5115036;28;20055;-62
2023/11/05 09:08:15;;;;;;;0.77;0.40;;;;;;;;;;5115322;28;20059;-63
2023/11/05 09:10:42;;;;;;;1.63;0.47;;;;;;;;;;5113653;28;20056;-63
2023/11/05 09:13:09;;;;;;;1.60;1.10;;;;;;;;;;5114971;28;20055;-62
2023/11/05 09:15:36;;;;;;;1.20;0.60;;;;;;;;;;5114748;28;20047;-62
2023/11/05 09:18:04;;;;;;;1.48;0.80;;;;;;;;;;5114534;28;20425;-63
2023/11/05 09:20:31;;;;;;;1.80;0.67;;;;;;;;;;5115203;28;20059;-63
2023/11/05 09:22:58;;;;;;;1.15;0.70;;;;;;;;;;5114806;28;20071;-63
2023/11/05 09:25:27;;;;;;;1.10;0.50;;;;;;;;;;5114962;28;20054;-63
2023/11/05 09:27:54;;;;;;;1.03;0.60;;;;;;;;;;5115359;28;20460;-63
2023/11/05 09:30:21;;;;;;;0.95;0.50;;;;;;;;;;5114905;28;20481;-63
2023/11/05 09:32:47;;;;;;;1.38;0.60;;;;;;;;;;5114783;28;20056;-63
2023/11/05 09:35:16;;;;;;;1.00;0.63;;;;;;;;;;5114548;28;20047;-63
2023/11/05 09:37:43;;;;;;;1.20;0.40;;;;;;;;;;5114650;28;20481;-63
2023/11/05 09:40:12;;;;;;;1.23;0.70;;;;;;;;;;5114426;28;20063;-62
2023/11/05 09:42:43;;;;;;;1.15;0.60;;;;;;;;;;5114243;28;20059;-63
2023/11/05 09:45:12;;;;;;;1.25;0.77;;;;;;;;;;5114093;28;20047;-62
2023/11/05 09:47:40;;;;;;;1.30;0.70;;;;;;;;;;5114714;28;20058;-63
2023/11/05 09:50:09;;;;;;;2.07;0.93;;;;;;;;;;5113983;28;20054;-63
2023/11/05 09:52:39;;;;;;;2.90;0.98;;;;;;;;;;5114571;28;20058;-63
2023/11/05 09:55:06;;;;;;;1.85;0.90;;;;;;;;;;5114012;28;20051;-62
2023/11/05 09:57:33;;;;;;;2.72;0.90;;;;;;;;;;5114618;28;20054;-62
2023/11/05 10:00:00;;;;;;;1.48;0.90;;;;;;;;;;5114151;28;20052;-62
2023/11/05 10:02:47;;;;;;;1.73;0.80;;;;;;;;;;5114072;28;20052;-62
2023/11/05 10:05:15;;;;;;;2.30;0.70;;;;;;;;;;5113750;28;20047;-62
2023/11/05 10:07:42;;;;;;;1.55;0.70;;;;;;;;;;5114291;28;20062;-63
2023/11/05 10:10:09;;;;;;;2.28;0.90;;;;;;;;;;5113657;28;20058;-62
2023/11/05 10:12:36;;;;;;;2.88;0.90;;;;;;;;;;5114239;28;20052;-62
2023/11/05 10:15:03;;;;;;;3.90;1.25;;;;;;;;;;5113722;28;20052;-63
2023/11/05 10:17:30;;;;;;;2.42;1.00;;;;;;;;;;5114211;28;20043;-62
2023/11/05 10:19:57;;;;;;;3.80;1.02;;;;;;;;;;5114007;28;20074;-62
2023/11/05 10:22:25;;;;;;;2.00;1.00;;;;;;;;;;5113496;28;20052;-63
2023/11/05 10:24:52;;;;;;;3.03;1.25;;;;;;;;;;5113945;28;20055;-63
2023/11/05 10:27:26;;;;;;;3.70;1.27;;;;;;;;;;5113931;28;20080;-63
2023/11/05 10:29:54;;;;;;;2.45;1.10;;;;;;;;;;5113818;28;20055;-63
2023/11/05 10:32:21;;;;;;;2.50;1.15;;;;;;;;;;5113665;28;20044;-63
2023/11/05 10:34:49;;;;;;;2.00;1.10;;;;;;;;;;5113626;28;20062;-63
2023/11/05 10:37:16;;;;;;;1.70;1.05;;;;;;;;;;5113938;28;20404;-63
2023/11/05 10:39:44;;;;;;;2.30;1.13;;;;;;;;;;5113577;28;20055;-63
2023/11/05 10:42:12;;;;;;;3.22;1.40;;;;;;;;;;5113588;28;20075;-63
2023/11/05 10:44:39;;;;;;;3.72;1.60;;;;;;;;;;5113247;28;20055;-64
2023/11/05 10:47:07;;;;;;;2.58;1.70;;;;;;;;;;5113589;28;20047;-64
2023/11/05 10:49:35;;;;;;;3.17;1.33;;;;;;;;;;5113224;28;20051;-64
2023/11/05 10:52:03;;;;;;;3.03;1.40;;;;;;;;;;5113172;28;20062;-63
2023/11/05 10:54:31;;;;;;;1.73;0.90;;;;;;;;;;5113354;28;20059;-64
2023/11/05 10:56:59;;;;;;;2.88;1.02;;;;;;;;;;5113255;28;20369;-64
2023/11/05 10:59:37;;;;;;;3.20;1.58;;;;;;;;;;5112729;28;20059;-64
2023/11/05 11:02:06;;;;;;;2.67;0.98;;;;;;;;;;5113401;28;20047;-64
2023/11/05 11:04:32;;;;;;;2.40;1.17;;;;;;;;;;5113238;28;20096;-64
2023/11/05 11:06:59;;;;;;;2.92;0.70;;;;;;;;;;5113025;28;20048;-65
2023/11/05 11:09:27;;;;;;;1.63;0.80;;;;;;;;;;5112925;28;20051;-64
2023/11/05 11:11:54;;;;;;;1.80;0.70;;;;;;;;;;5113011;28;20058;-64
2023/11/05 11:14:24;;;;;;;2.83;1.00;;;;;;;;;;5112923;28;20485;-64
2023/11/05 11:16:50;;;;;;;1.60;0.80;;;;;;;;;;5112798;28;20392;-64
2023/11/05 11:19:18;;;;;;;1.30;0.90;;;;;;;;;;5112536;28;20052;-64
2023/11/05 11:21:46;;;;;;;2.40;1.10;;;;;;;;;;5112926;28;20047;-64
2023/11/05 11:24:43;;;;;;;1.48;0.90;;;;;;;;;;5112382;28;20083;-64
2023/11/05 11:27:14;;;;;;;2.08;1.08;;;;;;;;;;5049821;28;20180;-64
2023/11/05 11:29:45;;;;;;;2.22;0.98;;;;;;;;;;5100097;28;20162;-64
2023/11/05 11:32:13;;;;;;;1.85;1.20;;;;;;;;;;5113217;28;20409;-64
2023/11/05 11:34:42;;;;;;;2.60;1.30;;;;;;;;;;5114401;28;20439;-64
2023/11/05 11:37:08;;;;;;;2.80;1.50;;;;;;;;;;5116852;28;20055;-64
2023/11/05 11:39:35;;;;;;;2.15;1.30;;;;;;;;;;5117092;28;20052;-64
2023/11/05 11:42:03;;;;;;;3.17;1.40;;;;;;;;;;5116755;28;20052;-64
2023/11/05 11:44:30;;;;;;;2.28;1.17;;;;;;;;;;5116921;28;20047;-64
2023/11/05 11:46:58;;;;;;;2.92;1.30;;;;;;;;;;5117002;28;20051;-64
2023/11/05 11:49:29;;;;;;;2.97;1.30;;;;;;;;;;5116447;28;20109;-64
2023/11/05 11:51:56;;;;;;;2.53;1.33;;;;;;;;;;5116815;28;20052;-64
2023/11/05 11:54:24;;;;;;;3.17;1.40;;;;;;;;;;5116212;28;20055;-64
2023/11/05 11:56:51;;;;;;;3.08;1.63;;;;;;;;;;5116610;28;20052;-64
2023/11/05 11:59:18;;;;;;;3.28;1.65;;;;;;;;;;5116922;28;20055;-64
2023/11/05 12:01:45;;;;;;;2.60;1.67;;;;;;;;;;5116608;28;20051;-64
2023/11/05 12:04:14;;;;;;;2.15;1.58;;;;;;;;;;5116573;28;20048;-64
2023/11/05 12:06:44;;;;;;;3.13;1.53;;;;;;;;;;5116469;28;20047;-64
2023/11/05 12:09:19;;;;;;;2.38;1.40;;;;;;;;;;5116284;28;20469;-64
2023/11/05 12:11:47;;;;;;;2.58;1.45;;;;;;;;;;5116391;28;20063;-64
2023/11/05 12:14:14;;;;;;;5.05;2.13;;;;;;;;;;5116301;28;20059;-64
2023/11/05 12:16:41;;;;;;;3.63;1.48;;;;;;;;;;5116189;28;20054;-64
2023/11/05 12:19:10;;;;;;;3.83;1.40;;;;;;;;;;5115918;28;20421;-64
2023/11/05 12:21:38;;;;;;;2.20;1.40;;;;;;;;;;5116152;28;20066;-64
2023/11/05 12:24:07;;;;;;;2.10;1.17;;;;;;;;;;5115846;28;20056;-64
2023/11/05 12:26:34;;;;;;;1.90;1.23;;;;;;;;;;5116285;28;20051;-64
2023/11/05 12:29:00;;;;;;;2.25;1.25;;;;;;;;;;5114642;28;20051;-64
2023/11/05 12:31:28;;;;;;;4.55;1.48;;;;;;;;;;5115943;28;20058;-65
2023/11/05 12:33:55;;;;;;;6.55;1.70;;;;;;;;;;5115753;28;20362;-65
2023/11/05 12:36:22;;;;;;;3.20;2.22;;;;;;;;;;5115702;28;20048;-65
2023/11/05 12:38:50;;;;;;;4.75;2.28;;;;;;;;;;5115916;28;20059;-65
2023/11/05 12:41:17;;;;;;;5.90;2.00;;;;;;;;;;5115463;28;20054;-65
2023/11/05 12:43:43;;;;;;;3.97;1.30;;;;;;;;;;5115503;28;20665;-65
2023/11/05 12:46:11;;;;;;;2.95;1.52;;;;;;;;;;5115672;28;20483;-65
2023/11/05 12:48:38;;;;;;;2.20;1.20;;;;;;;;;;5115385;28;20051;-66
2023/11/05 12:51:05;;;;;;;3.50;1.80;;;;;;;;;;5115214;28;20133;-65
2023/11/05 12:53:31;;;;;;;2.03;1.10;;;;;;;;;;5115620;28;20044;-65
2023/11/05 12:56:03;;;;;;;2.67;1.50;;;;;;;;;;5115136;28;20052;-64
2023/11/05 12:58:30;;;;;;;3.20;1.70;;;;;;;;;;5115164;28;20070;-63
2023/11/05 13:00:57;;;;;;;3.17;1.52;;;;;;;;;;5115078;28;20051;-63
2023/11/05 13:03:24;;;;;;;4.20;1.77;;;;;;;;;;5115023;28;20492;-63
2023/11/05 13:05:51;;;;;;;5.75;2.40;;;;;;;;;;5114802;28;20063;-64
2023/11/05 13:08:18;;;;;;;4.50;2.15;;;;;;;;;;5115378;28;20477;-64
2023/11/05 13:10:45;;;;;;;5.45;3.30;;;;;;;;;;5114728;28;20051;-63
2023/11/05 13:13:13;;;;;;;6.45;3.40;;;;;;;;;;5115060;28;20504;-63
2023/11/05 13:15:40;;;;;;;5.22;2.35;;;;;;;;;;5114426;28;20048;-63
2023/11/05 13:18:07;;;;;;;3.72;2.38;;;;;;;;;;5114371;28;20471;-64
2023/11/05 13:20:34;;;;;;;4.57;2.60;;;;;;;;;;5115010;28;20058;-64
2023/11/05 13:23:01;;;;;;;6.25;3.13;;;;;;;;;;5114459;28;20074;-63
2023/11/05 13:25:28;;;;;;;5.53;3.00;;;;;;;;;;5114958;28;20052;-63
2023/11/05 13:27:55;;;;;;;5.07;2.75;;;;;;;;;;5115001;28;20058;-63
2023/11/05 13:30:25;;;;;;;5.72;2.92;;;;;;;;;;5114749;28;20401;-63
2023/11/05 13:32:51;;;;;;;4.53;2.80;;;;;;;;;;5115051;28;20461;-63
2023/11/05 13:35:19;;;;;;;5.35;2.55;;;;;;;;;;5114717;28;20054;-64
2023/11/05 13:37:46;;;;;;;6.03;3.63;;;;;;;;;;5114617;28;20059;-63
2023/11/05 13:40:15;;;;;;;7.28;4.03;;;;;;;;;;5114475;28;20055;-63
2023/11/05 13:42:42;;;;;;;6.05;3.28;;;;;;;;;;5114746;28;20060;-63
2023/11/05 13:45:09;;;;;;;7.38;3.78;;;;;;;;;;5113952;28;20051;-63
2023/11/05 13:47:38;;;;;;;6.38;3.13;;;;;;;;;;5114471;28;20051;-63
2023/11/05 13:50:07;;;;;;;6.47;3.60;;;;;;;;;;5113978;28;20051;-63
2023/11/05 13:52:34;;;;;;;4.53;3.22;;;;;;;;;;5113882;28;20062;-63
2023/11/05 13:55:01;;;;;;;7.20;3.80;;;;;;;;;;5114300;28;20051;-63
2023/11/05 13:57:28;;;;;;;5.82;3.83;;;;;;;;;;5113538;28;20047;-62
2023/11/05 13:59:55;;;;;;;11.73;5.20;;;;;;;;;;5114330;28;20491;-62
2023/11/05 14:02:22;;;;;;;5.72;3.97;;;;;;;;;;5114110;28;20047;-63
2023/11/05 14:04:50;;;;;;;6.55;4.10;;;;;;;;;;5114150;28;20062;-63
2023/11/05 14:07:17;;;;;;;8.40;4.32;;;;;;;;;;5113992;28;20044;-63
2023/11/05 14:09:44;;;;;;;9.38;4.35;;;;;;;;;;5113723;28;20078;-63
2023/11/05 14:12:11;;;;;;;8.02;4.07;;;;;;;;;;5113917;28;20051;-63
2023/11/05 14:14:37;;;;;;;6.57;4.55;;;;;;;;;;5113818;28;20056;-63
2023/11/05 14:17:06;;;;;;;9.70;4.97;;;;;;;;;;5114001;28;20503;-63
2023/11/05 14:19:33;;;;;;;9.35;4.55;;;;;;;;;;5114068;28;20066;-63
2023/11/05 14:22:01;;;;;;;9.68;4.38;;;;;;;;;;5113910;28;20048;-63
2023/11/05 14:24:28;;;;;;;8.23;4.82;;;;;;;;;;5113743;28;20058;-63
2023/11/05 14:26:55;;;;;;;6.10;4.03;;;;;;;;;;5113809;28;20062;-64
2023/11/05 14:29:22;;;;;;;10.07;4.40;;;;;;;;;;5113240;28;20059;-64
2023/11/05 14:31:49;;;;;;;7.40;4.10;;;;;;;;;;5113447;28;20515;-64
2023/11/05 14:34:16;;;;;;;6.85;3.90;;;;;;;;;;5113662;28;20051;-64
2023/11/05 14:36:43;;;;;;;9.15;4.15;;;;;;;;;;5113436;28;20051;-64
2023/11/05 14:39:13;;;;;;;6.50;3.72;;;;;;;;;;5113057;28;20052;-65
2023/11/05 14:41:40;;;;;;;7.22;4.22;;;;;;;;;;5113677;28;20051;-65
2023/11/05 14:44:07;;;;;;;7.20;4.15;;;;;;;;;;5113109;28;20051;-64
2023/11/05 14:46:34;;;;;;;8.93;4.10;;;;;;;;;;5113340;28;20066;-64